Sunday, May 27, 2018, 1:34 PM GMT
Back to Local

CZBF, Bathurst Airport Aviation Weather Reporting Station

Location: , , Canada Lat: 47.633
Local Time: 1:34 PM GMT (13:34 GMT) Lon: -65.75
Time Zone: GMT Elev: 193 ft

Show me the last for .
Show Decoded

2018-05-27 13:00 METAR CZBF 271300Z 22007KT 200V320 15SM SKC 12/03 A3030 RMK SLP263 =
2018-05-27 12:00 METAR CZBF 271200Z 00000KT 15SM FEW240 08/04 A3030 RMK CI1 CI TR SLP264 =
2018-05-27 11:00 METAR CZBF 271100Z 20003KT 150V230 15SM SCT240 05/03 A3030 RMK CI4 SLP264 =
2018-05-27 10:00 METAR CZBF 271000Z 24003KT 15SM FEW004 SCT250 03/03 A3028 RMK SF1CI3 CC ASOCTD
                 SLP257 =
2018-05-27 09:37 METAR CZBF 270937Z VRB02KT 10SM SCT004 BKN250 02/02 A3028 RMK SF3CS3 CC ASOCTD
                 SLP256 =
2018-05-27 09:00 METAR CZBF 270900Z 24005KT 180V250 8SM BKN003 BKN240 02/02 A3027 RMK SF7CI1 CI
                 TR VIS E 3 SLP253 =
2018-05-27 08:22 METAR CZBF 270822Z 21005KT 180V250 3SM BR OVC003 03/03 A3025 RMK FG2ST6 SLP247 =
2018-05-27 08:09 METAR CZBF 270809Z 23005KT 2SM BR OVC003 03/03 A3025 RMK FG5SF3 SLP246 =
2018-05-27 08:00 METAR CZBF 270800Z 23005KT 3SM BR OVC002 03/03 A3024 RMK SF8 VIS E 11/4 SLP245 =
2018-05-27 07:21 METAR CZBF 270721Z 23005KT 8SM OVC003 03/03 A3023 RMK SF8 SLP241 =
2018-05-27 07:00 METAR CZBF 270700Z 23006KT 5/8SM BR VV003 03/03 A3022 RMK FG8 SLP238 =
2018-05-27 06:46 METAR CZBF 270646Z 22007KT 3/4SM BR VV003 03/03 A3022 RMK FG8 SLP236 =
2018-05-27 06:43 METAR CZBF 270643Z 22007KT 200V260 2 1/4SM BR OVC002 03/03 A3021 RMK FG3SF5
                 SLP235 =
2018-05-27 06:00 METAR CZBF 270600Z 23005KT 15SM OVC002 03/03 A3020 RMK SF8 SLP231 =
2018-05-27 05:45 METAR CZBF 270545Z 22005KT 12SM BKN002 03/03 A3019 RMK SF6 SLP228 =
2018-05-27 05:00 METAR CZBF 270500Z CCA 18004KT 15SM FEW120 03/03 A3018 RMK AC1 AC TR SLP223 =
2018-05-27 04:00 METAR CZBF 270400Z 21003KT 150V240 15SM SKC 04/03 A3016 RMK SLP217 =
2018-05-27 03:00 METAR CZBF 270300Z 14003KT 15SM SKC 03/03 A3014 RMK SLP210 =
2018-05-27 02:00 METAR CZBF 270200Z VRB02KT 15SM SKC 05/04 A3011 RMK SLP201 =
2018-05-27 01:00 METAR CZBF 270100Z 00000KT 15SM SKC 07/04 A3008 RMK SLP188 =
2018-05-27 00:00 METAR CZBF 270000Z VRB02KT 15SM FEW240 09/04 A3004 RMK CI1 CI TR SLP174 =
2018-05-26 23:00 METAR CZBF 262300Z 06004KT 330V080 15SM FEW025 FEW240 11/04 A3000 RMK CF1CI1 CF
                 TR CI TR SLP161 =
2018-05-26 22:00 METAR CZBF 262200Z 04005KT 330V070 15SM FEW030 FEW230 12/04 A2996 RMK CF1CI1 CF
                 TR SLP149 =
2018-05-26 21:00 METAR CZBF 262100Z 04008KT 15SM FEW030 FEW220 12/04 A2993 RMK SC1CS1 SLP138 =
2018-05-26 20:00 METAR CZBF 262000Z 03007KT 360V070 15SM FEW030 SCT220 13/04 A2989 RMK CU1CS3
                 SLP124 =
2018-05-26 19:00 METAR CZBF 261900Z 04010G16KT 360V060 15SM SCT025 SCT080 SCT220 11/05 A2985 RMK
                 SC3AC1CS1 AC TR SLP113 =
2018-05-26 18:00 METAR CZBF 261800Z 04010G15KT 010V070 15SM SCT025 BKN080 11/06 A2981 RMK SC4AC1
                 SLP099 =
2018-05-26 17:25 METAR CZBF 261725Z 02008KT 350V080 15SM VCSH BKN020TCU BKN080 13/05 A2978 RMK
                 TCU6AC1 AC TR SH E SLP088 DENSITY ALT 200FT =
2018-05-26 17:00 METAR CZBF 261700Z 03006KT 15SM -SHRA BKN020TCU BKN070 BKN220 13/05 A2977 RMK
                 TCU7AC1CI1 AC TR CI TR SLP082 DENSITY ALT 200FT =
2018-05-26 16:52 METAR CZBF 261652Z 05004KT 030V090 15SM -SHRA BKN020TCU BKN070 13/06 A2976 RMK
                 TCU6AC1 AC TR SLP080 DENSITY ALT 200FT =
2018-05-26 16:00 METAR CZBF 261600Z 07006KT 020V110 15SM VCSH BKN020 BKN220 13/06 A2975 RMK
                 SC7CI1 CI TR SH W CVCTV CLD EMBD SLP076 DENSITY ALT 200FT =
2018-05-26 15:00 METAR CZBF 261500Z 04006KT 350V080 15SM FEW020 BKN070 BKN220 12/06 A2975 RMK
                 CU1AC4CI1 SLP076 =
2018-05-26 14:00 METAR CZBF 261400Z 05004KT 350V100 15SM SCT030 10/06 A2974 RMK SC4 SLP072 =

Support USWX by starting your Amazon purchase here.